createdAt,value
2023-01-08T00:02:25.687Z,88.81
2023-01-08T00:05:27.401Z,90.04
2023-01-08T00:08:30.645Z,89.99
2023-01-08T00:11:32.387Z,91.07
2023-01-08T00:14:34.082Z,91.50
2023-01-08T00:17:35.728Z,91.63
2023-01-08T00:20:41.844Z,90.83
2023-01-08T00:23:43.556Z,91.45
2023-01-08T00:26:45.210Z,92.10
2023-01-08T00:29:46.915Z,92.24
2023-01-08T00:32:48.550Z,91.88
2023-01-08T00:35:50.254Z,92.24
2023-01-08T00:38:51.992Z,91.48
2023-01-08T00:41:53.744Z,90.18
2023-01-08T00:44:55.425Z,90.05
2023-01-08T00:47:57.231Z,89.23
2023-01-08T00:51:03.114Z,88.53
2023-01-08T00:54:04.841Z,89.23
2023-01-08T00:57:06.575Z,89.02
2023-01-08T01:00:11.445Z,90.14
2023-01-08T01:03:13.241Z,89.35
2023-01-08T01:06:15.217Z,90.58
2023-01-08T01:09:17.254Z,90.16
2023-01-08T01:12:19.153Z,90.05
2023-01-08T01:15:20.806Z,89.49
2023-01-08T01:18:22.504Z,89.38
2023-01-08T01:21:28.128Z,89.89
2023-01-08T01:24:30.026Z,89.88
2023-01-08T01:27:31.754Z,89.32
2023-01-08T01:30:33.609Z,89.69
2023-01-08T01:33:35.306Z,89.36
2023-01-08T01:36:37.462Z,89.84
2023-01-08T01:39:40.393Z,89.73
2023-01-08T01:42:43.766Z,89.17
2023-01-08T01:45:45.534Z,91.25
2023-01-08T01:48:50.186Z,89.94
2023-01-08T01:51:55.774Z,89.94
2023-01-08T01:55:00.753Z,89.10
2023-01-08T01:58:11.673Z,88.90
2023-01-08T02:01:14.102Z,89.38
2023-01-08T02:04:16.034Z,89.45
2023-01-08T02:07:58.301Z,89.16
2023-01-08T02:11:33.413Z,89.36
2023-01-08T02:14:53.945Z,88.95
2023-01-08T02:18:20.609Z,90.42
2023-01-08T02:21:40.891Z,89.61
2023-01-08T02:24:55.274Z,89.21
2023-01-08T02:28:01.861Z,90.33
2023-01-08T02:31:05.785Z,90.78
2023-01-08T02:34:07.844Z,91.14
2023-01-08T02:37:10.155Z,91.75
2023-01-08T02:40:18.885Z,92.17
2023-01-08T02:43:48.952Z,91.80
2023-01-08T02:46:54.383Z,91.79
2023-01-08T02:50:07.551Z,91.01
2023-01-08T02:53:14.811Z,91.83
2023-01-08T02:56:24.776Z,91.42
2023-01-08T02:59:29.707Z,91.03
2023-01-08T03:02:35.536Z,90.59
2023-01-08T03:05:40.451Z,90.52
2023-01-08T03:08:46.229Z,91.22
2023-01-08T03:12:00.154Z,91.08
2023-01-08T03:15:12.340Z,91.09
2023-01-08T03:18:20.874Z,90.75
2023-01-08T03:21:22.887Z,88.90
2023-01-08T03:24:29.529Z,89.85
2023-01-08T03:27:33.797Z,89.19
2023-01-08T03:30:38.634Z,88.35
2023-01-08T03:33:41.102Z,87.68
2023-01-08T03:36:48.085Z,88.01
2023-01-08T03:39:57.543Z,87.57
2023-01-08T03:42:59.877Z,87.38
2023-01-08T03:46:11.915Z,87.53
2023-01-08T03:49:15.310Z,86.29
2023-01-08T03:52:28.985Z,86.53
2023-01-08T03:55:30.635Z,86.52
2023-01-08T03:58:32.541Z,86.81
2023-01-08T04:01:34.740Z,86.38
2023-01-08T04:04:36.727Z,87.60
2023-01-08T04:07:38.507Z,86.69
2023-01-08T04:10:40.210Z,87.16
2023-01-08T04:13:42.170Z,87.80
2023-01-08T04:16:43.828Z,87.77
2023-01-08T04:19:45.919Z,87.32
2023-01-08T04:22:47.632Z,87.57
2023-01-08T04:25:49.333Z,88.28
2023-01-08T04:28:51.009Z,88.10
2023-01-08T04:31:52.703Z,87.73
2023-01-08T04:34:54.392Z,88.06
2023-01-08T04:37:56.102Z,87.33
2023-01-08T04:40:58.927Z,87.27
2023-01-08T04:44:00.584Z,87.04
2023-01-08T04:47:02.328Z,87.23
2023-01-08T04:50:04.384Z,86.86
2023-01-08T04:53:06.040Z,86.78
2023-01-08T04:56:09.718Z,86.24
2023-01-08T04:59:11.519Z,86.97
2023-01-08T05:02:13.759Z,86.75
2023-01-08T05:05:15.753Z,87.64
2023-01-08T05:08:17.845Z,87.22
2023-01-08T05:11:19.516Z,87.01
2023-01-08T05:14:21.304Z,86.71
2023-01-08T05:17:23.044Z,86.36
2023-01-08T05:20:24.796Z,85.85
2023-01-08T05:23:26.602Z,85.75
2023-01-08T05:26:28.385Z,86.16
2023-01-08T05:29:30.096Z,86.59
2023-01-08T05:32:31.732Z,86.61
2023-01-08T05:35:33.436Z,86.05
2023-01-08T05:38:35.371Z,86.23
2023-01-08T05:41:37.058Z,87.42
2023-01-08T05:44:38.695Z,86.75
2023-01-08T05:47:40.343Z,86.91
2023-01-08T05:50:42.082Z,86.01
2023-01-08T05:53:43.805Z,85.70
2023-01-08T05:56:45.532Z,85.90
2023-01-08T05:59:47.325Z,85.68
2023-01-08T06:02:49.129Z,86.41
2023-01-08T06:05:50.824Z,86.39
2023-01-08T06:08:52.464Z,86.14
2023-01-08T06:11:57.140Z,86.65
2023-01-08T06:14:58.801Z,86.42
2023-01-08T06:18:04.499Z,86.17
2023-01-08T06:21:06.336Z,85.98
2023-01-08T06:24:08.126Z,86.34
2023-01-08T06:27:09.863Z,86.35
2023-01-08T06:30:11.732Z,86.74
2023-01-08T06:33:13.650Z,86.67
2023-01-08T06:36:15.289Z,86.84
2023-01-08T06:39:17.308Z,88.19
2023-01-08T06:42:19.043Z,88.64
2023-01-08T06:45:20.842Z,88.24
2023-01-08T06:48:22.500Z,87.86
2023-01-08T06:51:24.113Z,87.68
2023-01-08T06:54:25.774Z,87.40
2023-01-08T06:57:27.508Z,87.35
2023-01-08T07:00:29.179Z,87.26
2023-01-08T07:03:31.442Z,86.89
2023-01-08T07:06:33.217Z,85.97
2023-01-08T07:09:35.442Z,86.84
2023-01-08T07:12:37.657Z,87.55
2023-01-08T07:15:43.244Z,87.81
2023-01-08T07:18:45.068Z,87.40
2023-01-08T07:21:46.761Z,87.68
2023-01-08T07:24:48.439Z,88.92
2023-01-08T07:27:50.142Z,88.77
2023-01-08T07:30:51.761Z,87.72
2023-01-08T07:33:53.419Z,88.16
2023-01-08T07:36:55.109Z,88.10
2023-01-08T07:39:56.804Z,88.10
2023-01-08T07:43:03.526Z,88.30
2023-01-08T07:46:05.650Z,88.13
2023-01-08T07:49:07.810Z,87.63
2023-01-08T07:52:09.971Z,88.03
2023-01-08T07:55:11.664Z,88.25
2023-01-08T07:58:14.794Z,87.65
2023-01-08T08:01:16.692Z,88.14
2023-01-08T08:04:19.246Z,87.63
2023-01-08T08:07:20.938Z,88.79
2023-01-08T08:10:22.591Z,88.58
2023-01-08T08:13:24.348Z,88.57
2023-01-08T08:16:26.108Z,88.81
2023-01-08T08:19:27.834Z,88.51
2023-01-08T08:22:30.398Z,87.85
2023-01-08T08:25:32.282Z,87.23
2023-01-08T08:28:33.974Z,82.76
2023-01-08T08:31:35.769Z,79.62
2023-01-08T08:34:37.496Z,76.72
2023-01-08T08:37:39.190Z,76.67
2023-01-08T08:40:42.475Z,77.90
2023-01-08T08:43:44.873Z,80.12
2023-01-08T08:46:46.593Z,79.81
2023-01-08T08:49:48.362Z,77.71
2023-01-08T08:52:50.130Z,77.10
2023-01-08T08:55:51.852Z,76.51
2023-01-08T08:58:53.537Z,75.44
2023-01-08T09:01:55.467Z,74.08
2023-01-08T09:04:57.424Z,76.55
2023-01-08T09:07:59.133Z,77.98
2023-01-08T09:11:02.498Z,77.55
2023-01-08T09:14:04.290Z,77.98
2023-01-08T09:17:05.935Z,77.87
2023-01-08T09:20:08.150Z,76.16
2023-01-08T09:23:09.843Z,75.91
2023-01-08T09:26:11.576Z,76.39
2023-01-08T09:29:13.744Z,76.15
2023-01-08T09:32:15.618Z,78.01
2023-01-08T09:35:17.296Z,77.49
2023-01-08T09:38:18.952Z,76.15
2023-01-08T09:41:31.400Z,74.32
2023-01-08T09:44:38.938Z,71.10
2023-01-08T09:47:43.964Z,70.69
2023-01-08T09:50:47.679Z,69.68
2023-01-08T09:53:55.385Z,68.14
2023-01-08T09:56:59.217Z,68.85
2023-01-08T10:00:01.301Z,69.75
2023-01-08T10:03:04.109Z,68.74
2023-01-08T10:06:10.410Z,67.49
2023-01-08T10:09:15.315Z,66.53
2023-01-08T10:12:26.966Z,66.00
2023-01-08T10:15:28.773Z,64.84
2023-01-08T10:18:32.915Z,64.94
2023-01-08T10:21:40.532Z,65.51
2023-01-08T10:24:43.304Z,65.33
2023-01-08T10:27:51.097Z,63.70
2023-01-08T10:30:58.387Z,61.16
2023-01-08T10:34:09.462Z,59.88
2023-01-08T10:37:47.096Z,57.94
2023-01-08T10:40:49.742Z,57.02
2023-01-08T10:43:56.251Z,55.97
2023-01-08T10:47:00.898Z,52.67
2023-01-08T10:50:05.518Z,53.14
2023-01-08T10:53:23.755Z,54.38
2023-01-08T10:56:26.971Z,54.24
2023-01-08T10:59:29.038Z,53.57
2023-01-08T11:02:38.273Z,55.21
2023-01-08T11:05:42.935Z,53.96
2023-01-08T11:08:53.524Z,54.30
2023-01-08T11:11:55.882Z,54.07
2023-01-08T11:14:57.703Z,53.44
2023-01-08T11:18:11.287Z,51.43
2023-01-08T11:21:22.675Z,51.34
2023-01-08T11:24:32.300Z,55.00
2023-01-08T11:27:41.130Z,58.62
2023-01-08T11:30:53.605Z,62.09
2023-01-08T11:34:02.306Z,62.61
2023-01-08T11:37:12.155Z,60.18
2023-01-08T11:40:16.029Z,56.40
2023-01-08T11:43:36.064Z,59.81
2023-01-08T11:47:25.094Z,63.90
2023-01-08T11:50:35.291Z,66.63
2023-01-08T11:53:47.156Z,66.08
2023-01-08T11:57:14.866Z,66.01
2023-01-08T12:00:42.941Z,67.43
2023-01-08T12:03:55.621Z,61.68
2023-01-08T12:07:18.193Z,56.40
2023-01-08T12:10:46.444Z,57.74
2023-01-08T12:14:04.436Z,58.81
2023-01-08T12:17:30.731Z,61.60
2023-01-08T12:21:04.923Z,60.89
2023-01-08T12:24:17.637Z,55.40
2023-01-08T12:27:58.373Z,54.93
2023-01-08T12:31:28.505Z,54.49
2023-01-08T12:34:53.416Z,51.56
2023-01-08T12:38:13.149Z,51.94
2023-01-08T12:41:18.752Z,51.76
2023-01-08T12:44:26.773Z,52.02
2023-01-08T12:47:33.065Z,51.56
2023-01-08T12:50:51.334Z,52.51
2023-01-08T12:54:29.817Z,51.74
2023-01-08T12:58:17.388Z,50.39
2023-01-08T13:01:25.377Z,51.90
2023-01-08T13:04:27.437Z,50.13
2023-01-08T13:07:38.813Z,52.68
2023-01-08T13:10:50.324Z,53.50
2023-01-08T13:14:03.794Z,53.92
2023-01-08T13:17:19.490Z,54.84
2023-01-08T13:20:29.442Z,54.10
2023-01-08T13:23:35.098Z,55.45
2023-01-08T13:26:37.099Z,54.17
2023-01-08T13:29:42.831Z,54.01
2023-01-08T13:32:48.545Z,55.03
2023-01-08T13:35:50.652Z,58.80
2023-01-08T13:39:05.832Z,63.51
2023-01-08T13:42:31.432Z,63.38
2023-01-08T13:45:33.774Z,64.03
2023-01-08T13:48:53.332Z,64.13
2023-01-08T13:51:55.367Z,63.57
2023-01-08T13:54:57.381Z,64.80
2023-01-08T13:58:04.992Z,66.87
2023-01-08T14:01:07.711Z,67.02
2023-01-08T14:04:19.699Z,67.49
2023-01-08T14:07:23.690Z,67.92
2023-01-08T14:10:28.061Z,68.33
2023-01-08T14:13:34.136Z,68.98
2023-01-08T14:16:37.641Z,69.89
2023-01-08T14:19:51.933Z,69.37
2023-01-08T14:22:53.663Z,69.27
2023-01-08T14:25:55.412Z,70.50
2023-01-08T14:28:57.306Z,70.57
2023-01-08T14:32:00.566Z,69.75
2023-01-08T14:35:03.911Z,70.48
2023-01-08T14:38:05.895Z,70.73
2023-01-08T14:41:11.913Z,70.20
2023-01-08T14:44:17.349Z,71.16
2023-01-08T14:47:20.989Z,71.06
2023-01-08T14:50:32.029Z,71.06
2023-01-08T14:53:37.807Z,71.11
2023-01-08T14:56:39.574Z,71.41
2023-01-08T14:59:41.810Z,71.20
2023-01-08T15:02:46.119Z,71.74
2023-01-08T15:05:49.403Z,72.28
2023-01-08T15:08:51.157Z,72.66
2023-01-08T15:12:05.008Z,72.88
2023-01-08T15:15:23.121Z,73.12
2023-01-08T15:18:25.709Z,72.80
2023-01-08T15:21:27.564Z,73.82
2023-01-08T15:24:31.687Z,74.44
2023-01-08T15:27:37.293Z,74.55
2023-01-08T15:30:45.693Z,74.24
2023-01-08T15:33:47.394Z,74.69
2023-01-08T15:36:49.276Z,74.57
2023-01-08T15:39:50.954Z,75.19
2023-01-08T15:43:10.801Z,74.92
2023-01-08T15:46:12.531Z,75.18
2023-01-08T15:49:14.332Z,75.75
2023-01-08T15:52:23.342Z,75.16
2023-01-08T15:55:25.080Z,75.30
2023-01-08T15:58:26.775Z,75.12
2023-01-08T16:01:29.142Z,74.61
2023-01-08T16:04:31.029Z,74.77
2023-01-08T16:07:41.769Z,74.72
2023-01-08T16:10:43.532Z,74.58
2023-01-08T16:13:45.708Z,74.20
2023-01-08T16:16:47.639Z,73.81
2023-01-08T16:19:49.433Z,74.12
2023-01-08T16:22:51.244Z,74.09
2023-01-08T16:25:53.113Z,74.11
2023-01-08T16:28:55.183Z,73.83
2023-01-08T16:31:56.947Z,73.43
2023-01-08T16:34:58.904Z,73.39
2023-01-08T16:38:00.837Z,73.65
2023-01-08T16:41:02.897Z,73.71
2023-01-08T16:44:04.971Z,73.47
2023-01-08T16:47:06.955Z,73.58
2023-01-08T16:50:11.048Z,73.86
2023-01-08T16:53:17.824Z,73.76
2023-01-08T16:56:19.545Z,73.81
2023-01-08T16:59:24.010Z,73.56
2023-01-08T17:02:27.375Z,73.46
2023-01-08T17:05:29.303Z,73.74
2023-01-08T17:08:31.166Z,73.36
2023-01-08T17:11:32.930Z,73.92
2023-01-08T17:14:36.607Z,73.61
2023-01-08T17:17:38.294Z,73.59
2023-01-08T17:20:40.016Z,73.88
2023-01-08T17:23:44.666Z,73.96
2023-01-08T17:26:46.543Z,73.96
2023-01-08T17:29:48.207Z,73.45
2023-01-08T17:32:49.925Z,73.51
2023-01-08T17:35:51.554Z,73.52
2023-01-08T17:38:54.386Z,73.16
2023-01-08T17:42:14.859Z,73.69
2023-01-08T17:45:17.281Z,73.48
2023-01-08T17:48:19.067Z,72.81
2023-01-08T17:51:21.374Z,73.05
2023-01-08T17:54:24.184Z,72.44
2023-01-08T17:57:26.552Z,72.98
2023-01-08T18:00:28.594Z,72.51
2023-01-08T18:03:30.482Z,71.85
2023-01-08T18:06:33.381Z,72.15
2023-01-08T18:09:36.834Z,72.18
2023-01-08T18:12:40.352Z,71.17
2023-01-08T18:15:42.622Z,72.00
2023-01-08T18:18:44.539Z,71.27
2023-01-08T18:21:47.792Z,70.97
2023-01-08T18:24:49.512Z,70.85
2023-01-08T18:27:51.342Z,70.64
2023-01-08T18:30:53.213Z,70.29
2023-01-08T18:33:55.390Z,70.32
2023-01-08T18:36:57.687Z,70.62
2023-01-08T18:39:59.449Z,70.39
2023-01-08T18:43:01.496Z,70.49
2023-01-08T18:46:06.792Z,70.50
2023-01-08T18:49:09.208Z,70.04
2023-01-08T18:52:13.928Z,70.14
2023-01-08T18:55:15.742Z,70.65
2023-01-08T18:58:17.626Z,69.99
2023-01-08T19:01:19.405Z,70.09
2023-01-08T19:04:21.363Z,70.01
2023-01-08T19:07:23.196Z,70.65
2023-01-08T19:10:24.883Z,69.80
2023-01-08T19:13:26.621Z,69.93
2023-01-08T19:16:28.645Z,69.70
2023-01-08T19:19:30.701Z,69.08
2023-01-08T19:22:32.938Z,68.60
2023-01-08T19:25:38.271Z,68.76
2023-01-08T19:28:41.710Z,68.06
2023-01-08T19:31:43.607Z,67.87
2023-01-08T19:34:45.541Z,67.65
2023-01-08T19:37:47.398Z,67.51
2023-01-08T19:40:49.470Z,67.67
2023-01-08T19:43:51.306Z,67.20
2023-01-08T19:46:53.114Z,67.18
2023-01-08T19:49:55.017Z,66.78
2023-01-08T19:52:56.904Z,66.76
2023-01-08T19:56:05.341Z,66.16
2023-01-08T19:59:07.224Z,66.06
2023-01-08T20:02:10.221Z,66.09
2023-01-08T20:05:12.276Z,65.66
2023-01-08T20:08:14.310Z,65.69
2023-01-08T20:11:17.888Z,65.99
2023-01-08T20:14:21.129Z,65.49
2023-01-08T20:17:25.251Z,66.03
2023-01-08T20:20:27.395Z,66.12
2023-01-08T20:23:29.169Z,66.38
2023-01-08T20:26:32.090Z,65.73
2023-01-08T20:29:34.416Z,66.41
2023-01-08T20:32:37.678Z,65.71
2023-01-08T20:35:39.583Z,66.40
2023-01-08T20:38:41.909Z,66.01
2023-01-08T20:41:50.368Z,66.75
2023-01-08T20:45:02.951Z,66.73
2023-01-08T20:48:05.383Z,65.77
2023-01-08T20:51:07.383Z,65.91
2023-01-08T20:54:13.095Z,66.24
2023-01-08T20:57:15.029Z,66.73
2023-01-08T21:00:18.381Z,66.27
2023-01-08T21:03:20.655Z,66.71
2023-01-08T21:06:25.461Z,66.11
2023-01-08T21:09:27.233Z,66.72
2023-01-08T21:12:29.524Z,66.46
2023-01-08T21:15:31.317Z,67.03
2023-01-08T21:18:33.880Z,66.62
2023-01-08T21:21:39.978Z,66.37
2023-01-08T21:24:42.268Z,66.66
2023-01-08T21:27:44.068Z,67.27
2023-01-08T21:30:45.793Z,67.19
2023-01-08T21:33:49.274Z,67.83
2023-01-08T21:36:51.040Z,67.46
2023-01-08T21:39:53.648Z,67.48
2023-01-08T21:43:14.968Z,67.78
2023-01-08T21:46:17.493Z,68.04
2023-01-08T21:49:19.181Z,68.51
2023-01-08T21:52:39.059Z,68.04
2023-01-08T21:55:42.108Z,68.22
2023-01-08T21:58:43.889Z,67.64
2023-01-08T22:01:46.303Z,67.42
2023-01-08T22:04:48.290Z,67.86
2023-01-08T22:07:50.054Z,67.85
2023-01-08T22:10:55.569Z,67.89
2023-01-08T22:13:58.758Z,68.21
2023-01-08T22:17:00.513Z,69.16
2023-01-08T22:20:02.911Z,68.87
2023-01-08T22:23:04.632Z,69.02
2023-01-08T22:26:08.580Z,69.21
2023-01-08T22:29:10.315Z,69.59
2023-01-08T22:32:12.132Z,69.43
2023-01-08T22:35:14.155Z,69.64
2023-01-08T22:38:16.023Z,69.59
2023-01-08T22:41:22.322Z,70.74
2023-01-08T22:44:24.056Z,70.41
2023-01-08T22:47:25.763Z,70.92
2023-01-08T22:50:27.482Z,71.34
2023-01-08T22:53:29.345Z,71.02
2023-01-08T22:56:31.050Z,71.69
2023-01-08T22:59:33.022Z,71.81
2023-01-08T23:02:35.820Z,71.45
2023-01-08T23:05:37.680Z,71.28
2023-01-08T23:08:41.100Z,71.54
2023-01-08T23:11:43.091Z,72.04
2023-01-08T23:14:44.800Z,71.90
2023-01-08T23:17:52.177Z,72.08
2023-01-08T23:21:04.342Z,71.95
2023-01-08T23:24:11.033Z,72.28
2023-01-08T23:27:12.747Z,71.96
2023-01-08T23:30:14.488Z,72.31
2023-01-08T23:33:16.128Z,71.87
2023-01-08T23:36:19.066Z,72.44
2023-01-08T23:39:21.319Z,72.02
2023-01-08T23:42:23.023Z,72.20
2023-01-08T23:45:24.769Z,72.25
2023-01-08T23:48:26.587Z,72.29
2023-01-08T23:51:28.295Z,72.17
2023-01-08T23:54:30.064Z,72.29
2023-01-08T23:57:31.820Z,71.38
